Time;durP1;ratioP1;P1;durP2;ratioP2;P2;SDS_P1;SDS_P2;PMS_P1;PMS_P2;Temp;Humidity;BMP_temperature;BMP_pressure;BME280_temperature;BME280_humidity;BME280_pressure;Samples;Min_cycle;Max_cycle;Signal;HPM_P1;HPM_P2
2022/03/18 00:00:00;;;;;;;6.30;3.55;;;;;;;-7.67;43.76;101020.09;4938890;29;20054;-83
2022/03/18 00:02:27;;;;;;;5.85;3.88;;;;;;;-7.67;43.86;101012.28;4969473;28;20039;-84
2022/03/18 00:04:56;;;;;;;8.52;4.30;;;;;;;-7.59;43.96;101016.81;4952919;29;20043;-84
2022/03/18 00:07:31;;;;;;;10.43;4.53;;;;;;;-7.55;44.07;101022.09;4937820;29;20138;-82
2022/03/18 00:09:57;;;;;;;6.10;3.78;;;;;;;-7.63;44.10;101022.81;4938518;29;20138;-84
2022/03/18 00:12:23;;;;;;;11.90;4.18;;;;;;;-7.58;43.74;101015.97;4936794;29;20516;-82
2022/03/18 00:14:48;;;;;;;10.27;4.63;;;;;;;-7.65;43.79;101014.09;4936627;29;20050;-82
2022/03/18 00:17:14;;;;;;;5.78;3.42;;;;;;;-7.62;44.10;101029.75;4936329;29;20051;-82
2022/03/18 00:19:40;;;;;;;7.70;4.35;;;;;;;-7.65;44.10;101024.47;4936528;29;20091;-82
2022/03/18 00:22:06;;;;;;;10.75;3.97;;;;;;;-7.80;43.89;101021.56;4937827;28;20059;-85
2022/03/18 00:24:33;;;;;;;5.00;3.70;;;;;;;-7.87;44.70;101027.47;4936607;29;20510;-83
2022/03/18 00:27:00;;;;;;;7.68;3.85;;;;;;;-8.02;44.58;101022.81;4938512;29;20075;-83
2022/03/18 00:29:26;;;;;;;6.60;3.83;;;;;;;-8.09;44.76;101015.75;4922901;29;20075;-82
2022/03/18 00:31:53;;;;;;;10.40;4.78;;;;;;;-8.13;44.46;101019.97;4922394;29;20465;-83
2022/03/18 00:34:20;;;;;;;8.35;4.57;;;;;;;-8.15;44.32;101021.69;4952252;29;20051;-81
2022/03/18 00:36:46;;;;;;;14.07;4.50;;;;;;;-8.13;44.54;101029.47;4920711;29;20567;-83
2022/03/18 00:39:12;;;;;;;8.40;4.70;;;;;;;-8.11;44.52;101026.09;4904986;29;20500;-83
2022/03/18 00:41:38;;;;;;;9.65;4.38;;;;;;;-8.10;44.47;101019.19;4937516;29;20071;-82
2022/03/18 00:44:04;;;;;;;10.25;5.05;;;;;;;-8.07;44.55;101019.25;4937633;29;20052;-83
2022/03/18 00:46:30;;;;;;;33.40;4.30;;;;;;;-8.16;44.99;101017.34;4937215;29;20095;-82
2022/03/18 00:52:05;;;;;;;8.73;4.50;;;;;;;-8.14;44.74;101023.44;4937048;29;20163;-82
2022/03/18 00:54:36;;;;;;;11.15;4.43;;;;;;;-8.14;44.96;101033.81;4920422;29;20495;-82
2022/03/18 00:57:03;;;;;;;8.43;4.18;;;;;;;-8.22;44.84;101026.69;4935715;29;20095;-83
2022/03/18 00:59:29;;;;;;;7.57;4.50;;;;;;;-8.12;44.67;101026.94;4937901;29;20083;-82
2022/03/18 01:01:57;;;;;;;8.48;3.97;;;;;;;-8.10;44.61;101043.41;4904924;29;20043;-83
2022/03/18 01:04:28;;;;;;;16.20;4.10;;;;;;;-8.13;44.92;101032.94;4920182;29;20055;-84
2022/03/18 01:06:55;;;;;;;6.65;3.55;;;;;;;-8.11;44.94;101038.19;4951883;29;20415;-84
2022/03/18 01:09:22;;;;;;;8.38;4.40;;;;;;;-8.23;44.92;101031.00;4919735;29;20067;-82
2022/03/18 01:11:50;;;;;;;8.43;3.92;;;;;;;-8.22;44.87;101045.72;4935421;29;20052;-82
2022/03/18 01:14:17;;;;;;;6.15;3.67;;;;;;;-8.31;45.27;101040.34;4919693;29;20047;-82
2022/03/18 01:16:43;;;;;;;8.05;4.15;;;;;;;-8.40;45.24;101042.72;4936571;29;20051;-83
2022/03/18 01:19:09;;;;;;;11.48;3.90;;;;;;;-8.45;44.92;101037.44;4951558;29;20067;-83
2022/03/18 01:21:36;;;;;;;11.45;4.30;;;;;;;-8.42;45.13;101047.03;4939398;29;20048;-83
2022/03/18 01:24:05;;;;;;;8.13;3.78;;;;;;;-8.47;45.21;101054.66;4921577;29;20080;-83
2022/03/18 01:26:31;;;;;;;10.07;4.18;;;;;;;-8.59;45.54;101052.66;4935575;29;20047;-83
2022/03/18 01:28:58;;;;;;;7.68;3.80;;;;;;;-8.60;45.64;101052.63;4936491;29;20488;-83
2022/03/18 01:31:27;;;;;;;7.38;3.72;;;;;;;-8.60;45.86;101055.22;4951097;29;20058;-83
2022/03/18 01:33:54;;;;;;;7.80;3.85;;;;;;;-8.60;45.74;101048.31;4903750;29;20047;-83
2022/03/18 01:36:20;;;;;;;7.53;4.00;;;;;;;-8.64;45.61;101050.81;4919230;29;20051;-83
2022/03/18 01:38:46;;;;;;;9.15;4.00;;;;;;;-8.70;45.84;101061.88;4936225;29;20083;-82
2022/03/18 01:41:11;;;;;;;8.23;3.55;;;;;;;-8.72;45.97;101068.75;4935921;29;20508;-84
2022/03/18 01:43:41;;;;;;;8.77;4.05;;;;;;;-8.73;45.93;101066.97;4919135;29;20126;-85
2022/03/18 01:46:10;;;;;;;8.18;4.15;;;;;;;-8.76;46.09;101077.28;4904311;29;20043;-83
2022/03/18 01:48:36;;;;;;;15.93;4.68;;;;;;;-8.75;46.07;101079.03;4951182;29;20051;-85
2022/03/18 01:51:07;;;;;;;13.35;3.85;;;;;;;-8.81;46.60;101081.47;4950833;28;20381;-83
2022/03/18 01:53:38;;;;;;;10.02;4.00;;;;;;;-8.83;46.29;101077.97;4935097;29;20106;-83
2022/03/18 01:56:07;;;;;;;7.65;3.72;;;;;;;-8.82;46.48;101082.31;4936284;29;20500;-84
2022/03/18 01:58:33;;;;;;;7.80;3.88;;;;;;;-8.87;46.64;101091.69;4919080;29;20051;-84
2022/03/18 02:01:01;;;;;;;6.25;3.83;;;;;;;-9.01;46.61;101080.06;4903596;29;20058;-84
2022/03/18 02:03:27;;;;;;;9.73;3.65;;;;;;;-9.07;46.69;101076.44;4934740;29;20044;-83
2022/03/18 02:05:53;;;;;;;12.02;4.28;;;;;;;-9.06;46.74;101088.59;4931823;29;20127;-81
2022/03/18 02:08:20;;;;;;;10.45;3.95;;;;;;;-9.03;46.53;101087.78;4924945;29;20052;-86
2022/03/18 02:10:46;;;;;;;10.23;4.18;;;;;;;-9.01;46.60;101087.84;4932631;29;20059;-81
2022/03/18 02:13:12;;;;;;;13.48;3.90;;;;;;;-9.05;46.76;101082.56;4916962;29;20080;-82
2022/03/18 02:15:39;;;;;;;9.55;4.22;;;;;;;-9.03;46.98;101092.09;4931959;29;20047;-82
2022/03/18 02:18:06;;;;;;;15.80;4.65;;;;;;;-9.09;47.25;101096.28;4931615;29;20142;-84
2022/03/18 02:20:34;;;;;;;13.20;5.15;;;;;;;-9.09;46.97;101095.41;4915384;29;20048;-81
2022/03/18 02:23:01;;;;;;;25.60;4.43;;;;;;;-9.03;46.92;101097.25;4914975;29;20468;-80
2022/03/18 02:25:27;;;;;;;14.77;4.15;;;;;;;-9.05;47.22;101105.88;4899579;29;20040;-80
2022/03/18 02:27:59;;;;;;;8.65;4.05;;;;;;;-9.03;47.24;101105.03;4914949;29;20040;-83
2022/03/18 02:30:30;;;;;;;25.95;5.15;;;;;;;-9.00;47.15;101102.53;4915461;29;20055;-79
2022/03/18 02:32:57;;;;;;;20.33;4.53;;;;;;;-8.89;47.24;101108.88;4914476;29;20523;-81
2022/03/18 02:35:23;;;;;;;11.27;4.93;;;;;;;-8.84;46.85;101109.88;4931294;29;20059;-83
2022/03/18 02:37:49;;;;;;;10.52;4.15;;;;;;;-8.76;47.25;101103.22;4915083;29;20416;-80
2022/03/18 02:40:15;;;;;;;11.23;5.15;;;;;;;-8.70;46.74;101110.25;4915366;29;20048;-81
2022/03/18 02:42:42;;;;;;;13.75;4.78;;;;;;;-8.63;46.57;101110.44;4899475;29;20044;-82
2022/03/18 02:45:09;;;;;;;13.15;4.55;;;;;;;-8.57;46.54;101109.75;4931160;29;20048;-84
2022/03/18 02:47:34;;;;;;;8.30;4.00;;;;;;;-8.59;46.36;101111.41;4916397;29;20316;-82
2022/03/18 02:50:00;;;;;;;17.90;4.68;;;;;;;-8.79;46.80;101097.94;4930547;29;20537;-82
2022/03/18 02:52:26;;;;;;;14.02;4.38;;;;;;;-8.66;46.77;101125.03;4915082;29;20094;-81
2022/03/18 02:54:53;;;;;;;12.23;4.28;;;;;;;-8.57;46.60;101115.81;4919902;29;20047;-81
2022/03/18 02:57:19;;;;;;;18.55;5.68;;;;;;;-8.44;46.51;101116.09;4887275;29;20044;-83
2022/03/18 02:59:45;;;;;;;11.80;4.57;;;;;;;-8.32;46.19;101111.19;4934893;29;20086;-82
2022/03/18 03:02:12;;;;;;;9.50;4.07;;;;;;;-8.19;46.21;101115.84;4934874;29;20052;-83
2022/03/18 03:07:58;;;;;;;15.43;4.75;;;;;;;-8.09;45.49;101122.13;4918494;29;20400;-82
2022/03/18 03:10:09;;;;;;;15.18;4.93;;;;;;;-8.35;45.62;101118.88;4920122;29;20054;-86
2022/03/18 03:12:36;;;;;;;17.42;5.57;;;;;;;-8.50;46.38;101118.53;4926536;29;20051;-85
2022/03/18 03:15:03;;;;;;;14.27;5.15;;;;;;;-8.70;46.87;101124.09;4916377;29;20054;-84
2022/03/18 03:17:29;;;;;;;8.93;4.40;;;;;;;-8.67;47.10;101134.53;4949146;29;20020;-85
2022/03/18 03:19:56;;;;;;;26.02;5.03;;;;;;;-8.76;47.29;101123.94;4934237;29;20071;-83
2022/03/18 03:22:22;;;;;;;14.50;5.18;;;;;;;-8.94;47.86;101139.00;4937448;29;20064;-83
2022/03/18 03:24:47;;;;;;;14.60;6.25;;;;;;;-8.95;48.09;101132.94;4946334;29;20509;-82
2022/03/18 03:27:13;;;;;;;16.98;5.90;;;;;;;-8.87;48.19;101136.59;4921089;29;20512;-83
2022/03/18 03:29:39;;;;;;;21.55;6.75;;;;;;;-8.80;48.08;101148.00;4920638;29;20099;-84
2022/03/18 03:32:05;;;;;;;14.95;5.65;;;;;;;-8.81;48.61;101148.84;4920217;29;20043;-88
2022/03/18 03:34:32;;;;;;;10.45;5.95;;;;;;;-8.79;48.19;101154.97;4934589;29;20059;-81
2022/03/18 03:36:59;;;;;;;11.18;6.22;;;;;;;-8.69;48.03;101166.44;4919550;29;20052;-83
2022/03/18 03:39:25;;;;;;;14.20;6.43;;;;;;;-8.58;47.45;101163.28;4936153;29;20523;-89
2022/03/18 03:41:51;;;;;;;10.85;5.80;;;;;;;-8.50;47.48;101170.41;4934616;29;20179;-87
2022/03/18 03:44:17;;;;;;;12.52;6.53;;;;;;;-8.37;47.25;101169.88;4924560;29;20044;-87
2022/03/18 03:46:42;;;;;;;12.18;5.63;;;;;;;-8.37;47.76;101165.53;4938633;29;20059;-85
2022/03/18 03:49:09;;;;;;;23.48;5.95;;;;;;;-8.41;47.67;101166.34;4954728;29;20052;-83
2022/03/18 03:51:35;;;;;;;28.48;5.63;;;;;;;-8.36;47.99;101174.19;4936211;29;20079;-79
2022/03/18 03:54:01;;;;;;;7.05;4.68;;;;;;;-8.38;47.94;101179.38;4934348;29;20047;-80
2022/03/18 03:56:27;;;;;;;14.77;6.55;;;;;;;-8.39;48.06;101161.19;4935830;29;20052;-88
2022/03/18 03:58:53;;;;;;;12.23;4.25;;;;;;;-8.29;47.86;101167.47;4952384;29;20058;-88
2022/03/18 04:01:19;;;;;;;10.25;5.30;;;;;;;-8.07;47.61;101178.41;4919421;29;20048;-81
2022/03/18 04:03:47;;;;;;;13.38;5.32;;;;;;;-8.19;47.78;101185.03;4919485;29;20052;-82
2022/03/18 04:06:13;;;;;;;14.40;6.00;;;;;;;-8.13;47.62;101175.66;4933593;29;20051;-83
2022/03/18 04:08:39;;;;;;;16.75;5.68;;;;;;;-8.09;47.99;101177.47;4919490;29;20048;-81
2022/03/18 04:11:05;;;;;;;12.90;5.47;;;;;;;-8.15;47.70;101182.53;4936418;29;20075;-88
2022/03/18 04:13:31;;;;;;;14.40;6.57;;;;;;;-7.93;47.38;101189.13;4944776;29;20408;-81
2022/03/18 04:15:57;;;;;;;14.13;6.47;;;;;;;-7.65;46.68;101190.66;4919364;29;20044;-79
2022/03/18 04:18:23;;;;;;;23.63;7.65;;;;;;;-7.55;46.84;101190.88;4960519;28;20066;-79
2022/03/18 04:20:49;;;;;;;20.45;7.43;;;;;;;-7.38;46.43;101179.13;4952614;29;20035;-81
2022/03/18 04:23:15;;;;;;;27.42;8.07;;;;;;;-7.15;46.28;101182.22;4952717;28;20063;-81
2022/03/18 04:25:41;;;;;;;17.27;7.07;;;;;;;-7.01;45.68;101203.31;4981170;28;20080;-85
2022/03/18 04:28:07;;;;;;;18.83;8.35;;;;;;;-6.91;45.36;101198.34;4944593;29;20048;-82
2022/03/18 04:30:33;;;;;;;17.95;8.27;;;;;;;-6.80;45.28;101211.59;4950583;29;20062;-81
2022/03/18 04:32:59;;;;;;;19.73;7.45;;;;;;;-6.87;45.00;101199.28;4928053;29;20527;-87
2022/03/18 04:35:25;;;;;;;27.40;8.25;;;;;;;-6.78;44.64;101215.06;4933744;29;20103;-82
2022/03/18 04:37:51;;;;;;;17.25;6.50;;;;;;;-6.82;44.54;101197.66;4932805;29;20134;-81
2022/03/18 04:40:16;;;;;;;19.63;7.63;;;;;;;-6.76;44.71;101217.72;4917614;29;20131;-78
2022/03/18 04:42:44;;;;;;;17.80;7.28;;;;;;;-6.85;44.68;101221.84;4932514;29;20040;-78
2022/03/18 04:45:11;;;;;;;22.10;6.85;;;;;;;-6.65;44.96;101213.63;4932211;29;20068;-85
2022/03/18 04:47:37;;;;;;;18.52;6.70;;;;;;;-6.30;44.38;101223.81;4934259;29;20051;-78
2022/03/18 04:50:04;;;;;;;20.40;7.65;;;;;;;-6.33;44.10;101224.63;4953588;28;20048;-80
2022/03/18 04:52:31;;;;;;;21.83;7.32;;;;;;;-6.26;43.75;101220.41;4917622;29;20078;-77
2022/03/18 04:54:56;;;;;;;17.63;6.18;;;;;;;-6.26;43.24;101217.81;4932089;29;20516;-80
2022/03/18 04:57:22;;;;;;;12.45;6.95;;;;;;;-6.25;43.23;101216.94;4932912;29;20134;-78
2022/03/18 04:59:52;;;;;;;18.98;6.18;;;;;;;-6.30;43.30;101219.47;4917414;29;20047;-80
2022/03/18 05:02:20;;;;;;;13.90;6.20;;;;;;;-6.22;43.49;101217.88;4947874;29;20051;-78
2022/03/18 05:04:48;;;;;;;14.70;5.78;;;;;;;-6.32;43.21;101221.16;4931367;29;20091;-79
2022/03/18 05:07:15;;;;;;;32.42;6.88;;;;;;;-6.31;43.10;101212.53;4931763;29;20044;-78
2022/03/18 05:09:41;;;;;;;9.88;4.72;;;;;;;-5.99;43.20;101225.22;4934017;29;20048;-77
2022/03/18 05:12:09;;;;;;;11.57;5.50;;;;;;;-6.00;42.87;101223.47;4928006;29;20058;-77
2022/03/18 05:14:36;;;;;;;24.15;5.88;;;;;;;-5.74;42.67;101243.00;4950859;29;20052;-76
2022/03/18 05:17:03;;;;;;;17.45;6.22;;;;;;;-5.72;42.01;101237.78;4917972;29;20130;-77
2022/03/18 05:19:30;;;;;;;13.70;5.38;;;;;;;-5.72;42.11;101238.66;4966387;28;20122;-78
2022/03/18 05:21:57;;;;;;;17.60;5.53;;;;;;;-5.67;42.18;101230.94;4934144;29;20067;-76
2022/03/18 05:24:22;;;;;;;27.75;5.90;;;;;;;-5.70;42.12;101234.38;4950691;29;20210;-76
2022/03/18 05:26:48;;;;;;;14.52;6.13;;;;;;;-5.49;42.10;101240.75;4934798;29;20134;-77
2022/03/18 05:29:15;;;;;;;14.05;5.75;;;;;;;-5.41;41.62;101244.41;4935867;29;20123;-77
2022/03/18 05:31:42;;;;;;;18.30;6.00;;;;;;;-5.31;41.40;101243.66;4966249;28;20043;-78
2022/03/18 05:34:07;;;;;;;24.70;5.40;;;;;;;-5.21;41.09;101240.34;4934428;29;20040;-78
2022/03/18 05:36:33;;;;;;;27.35;5.10;;;;;;;-5.25;41.01;101248.97;4966645;28;20043;-77
2022/03/18 05:38:59;;;;;;;16.80;5.53;;;;;;;-5.17;41.29;101241.25;4935969;29;20051;-84
2022/03/18 05:41:26;;;;;;;15.93;6.75;;;;;;;-5.15;41.42;101240.44;4934759;29;20048;-78
2022/03/18 05:43:51;;;;;;;12.80;5.90;;;;;;;-5.40;41.54;101251.34;4935882;29;20048;-77
2022/03/18 05:46:17;;;;;;;21.60;5.65;;;;;;;-5.43;41.20;101253.91;4918005;29;20102;-81
2022/03/18 05:48:43;;;;;;;24.67;6.85;;;;;;;-5.29;41.87;101262.81;4949934;28;20069;-81
2022/03/18 05:51:09;;;;;;;17.38;6.85;;;;;;;-5.05;41.27;101254.47;4955162;28;20051;-78
2022/03/18 05:53:35;;;;;;;22.25;7.47;;;;;;;-5.02;41.22;101256.25;4935814;29;20055;-80
2022/03/18 05:58:46;;;;;;;15.63;5.82;;;;;;;-4.81;40.89;101266.06;4934376;29;20059;-81
2022/03/18 06:01:12;;;;;;;19.15;6.95;;;;;;;-4.58;41.33;101269.00;4933944;29;20052;-78
2022/03/18 06:03:38;;;;;;;16.00;8.13;;;;;;;-4.28;40.81;101266.75;4950033;29;20119;-80
2022/03/18 06:06:05;;;;;;;21.17;8.48;;;;;;;-4.01;40.16;101257.47;4935199;29;20496;-79
2022/03/18 06:14:03;;;;;;;16.73;7.57;;;;;;;-3.45;39.15;101264.94;4933902;29;20046;-89
2022/03/18 06:16:29;;;;;;;27.67;7.47;;;;;;;-3.53;38.82;101267.50;4933961;29;20455;-80
2022/03/18 06:18:55;;;;;;;21.70;8.10;;;;;;;-3.68;38.79;101273.47;4967062;28;20075;-80
2022/03/18 06:21:21;;;;;;;26.17;6.80;;;;;;;-3.77;39.72;101278.59;4930951;28;20139;-83
2022/03/18 06:23:47;;;;;;;24.10;7.57;;;;;;;-3.77;38.93;101278.59;4925625;29;20068;-80
2022/03/18 06:26:13;;;;;;;20.73;6.90;;;;;;;-3.59;39.12;101271.78;4935253;29;20499;-81
2022/03/18 06:28:39;;;;;;;24.58;8.07;;;;;;;-3.34;39.10;101284.19;4951839;28;20503;-82
2022/03/18 06:31:06;;;;;;;21.73;8.43;;;;;;;-3.12;39.09;101284.34;4921781;29;20054;-83
2022/03/18 06:33:33;;;;;;;18.25;7.95;;;;;;;-3.04;38.50;101293.13;4939758;29;20127;-81
2022/03/18 06:35:59;;;;;;;16.83;8.40;;;;;;;-2.94;38.49;101295.78;4939145;29;20424;-83
2022/03/18 06:38:25;;;;;;;20.95;7.75;;;;;;;-2.98;38.28;101285.31;4939104;29;20043;-81
2022/03/18 06:40:51;;;;;;;12.95;7.07;;;;;;;-3.02;37.62;101287.03;4921901;29;20487;-84
2022/03/18 06:43:17;;;;;;;16.17;7.22;;;;;;;-3.19;37.42;101289.53;4937921;29;20047;-82
2022/03/18 06:45:43;;;;;;;16.05;7.88;;;;;;;-3.19;37.69;101286.94;4938140;29;20048;-79
2022/03/18 06:48:10;;;;;;;17.65;8.25;;;;;;;-3.06;38.23;101294.84;4938709;29;20048;-83
2022/03/18 06:50:36;;;;;;;17.70;8.93;;;;;;;-2.72;37.67;101295.94;4937490;29;20039;-83
2022/03/18 06:53:02;;;;;;;19.35;8.45;;;;;;;-2.65;37.53;101287.25;4949313;29;20134;-82
2022/03/18 06:55:28;;;;;;;17.10;8.18;;;;;;;-2.54;37.16;101279.44;4905296;29;20064;-81
2022/03/18 06:57:54;;;;;;;22.92;7.88;;;;;;;-2.61;37.24;101294.25;4919155;29;20130;-87
2022/03/18 07:00:20;;;;;;;21.27;7.03;;;;;;;-2.70;36.96;101302.94;4917862;29;20084;-82
2022/03/18 07:02:46;;;;;;;15.38;6.47;;;;;;;-2.71;37.02;101300.28;4934358;29;20051;-81
2022/03/18 07:05:13;;;;;;;22.52;6.55;;;;;;;-2.80;37.25;101303.75;4918450;29;20040;-80
2022/03/18 07:07:40;;;;;;;15.30;5.97;;;;;;;-3.01;37.32;101308.81;4934443;29;20123;-86
2022/03/18 07:10:06;;;;;;;15.82;6.00;;;;;;;-2.90;37.20;101312.38;4918075;29;20056;-87
2022/03/18 07:12:36;;;;;;;16.13;6.57;;;;;;;-2.96;37.58;101309.75;4934218;29;20048;-83
2022/03/18 07:15:06;;;;;;;15.05;6.45;;;;;;;-2.93;37.54;101304.56;4918042;29;20047;-84
2022/03/18 07:20:18;;;;;;;9.32;4.90;;;;;;;-2.89;37.26;101311.56;4918170;29;20044;-89
2022/03/18 07:22:44;;;;;;;16.52;6.35;;;;;;;-2.77;37.14;101311.63;4942034;29;20188;-87
2022/03/18 07:25:10;;;;;;;9.13;5.10;;;;;;;-2.59;37.08;101315.22;4939229;29;20044;-91
2022/03/18 07:27:37;;;;;;;13.13;6.00;;;;;;;-2.42;37.05;101313.53;4903838;29;20048;-92
2022/03/18 07:30:04;;;;;;;17.83;6.22;;;;;;;-1.98;37.37;101318.06;4950256;29;20051;-86
2022/03/18 07:32:30;;;;;;;11.63;6.07;;;;;;;-1.80;36.76;101307.63;4919431;29;20459;-87
2022/03/18 07:34:56;;;;;;;10.32;6.07;;;;;;;-1.16;36.75;101311.19;4917803;29;20576;-87
2022/03/18 07:37:22;;;;;;;16.40;5.43;;;;;;;-1.04;36.57;101303.28;4949918;29;20123;-84
2022/03/18 07:39:48;;;;;;;12.65;6.05;;;;;;;-0.50;36.44;101298.78;4949234;28;20071;-83
2022/03/18 07:42:14;;;;;;;15.52;6.00;;;;;;;-0.38;35.23;101316.25;4967258;28;20082;-89
2022/03/18 07:44:40;;;;;;;10.95;5.25;;;;;;;-0.63;34.70;101310.22;4930306;29;20043;-85
2022/03/18 07:47:06;;;;;;;10.88;6.03;;;;;;;-0.66;35.19;101318.09;4946719;29;20647;-85
2022/03/18 07:49:32;;;;;;;12.15;5.75;;;;;;;-0.48;34.46;101323.31;4974548;28;20047;-87
2022/03/18 07:51:58;;;;;;;12.73;6.07;;;;;;;-0.55;34.19;101316.31;4928047;29;20048;-86
2022/03/18 07:54:24;;;;;;;14.40;5.05;;;;;;;-0.10;33.65;101314.41;4943008;29;20090;-86
2022/03/18 07:56:51;;;;;;;7.93;4.65;;;;;;;-0.28;33.40;101315.34;4963707;28;20036;-85
2022/03/18 07:59:17;;;;;;;7.20;3.30;;;;;;;-0.55;33.42;101326.81;4963401;28;20043;-84
2022/03/18 08:01:48;;;;;;;11.88;4.85;;;;;;;-0.58;34.26;101316.31;4960381;29;20044;-86
2022/03/18 08:04:14;;;;;;;15.27;4.82;;;;;;;-0.48;34.67;101315.44;4957964;29;20048;-89
2022/03/18 08:06:41;;;;;;;31.38;4.88;;;;;;;0.11;34.60;101311.63;4953195;29;20039;-86
2022/03/18 08:09:12;;;;;;;15.57;5.20;;;;;;;0.37;33.18;101313.25;4935928;29;20054;-90
2022/03/18 08:11:38;;;;;;;10.93;4.32;;;;;;;0.58;33.46;101302.56;4948781;29;20062;-86
2022/03/18 08:14:07;;;;;;;8.98;4.00;;;;;;;0.51;32.74;101305.25;4944603;29;20043;-90
2022/03/18 08:16:33;;;;;;;14.18;4.20;;;;;;;-0.07;32.65;101298.63;4946961;29;20058;-88
2022/03/18 08:18:59;;;;;;;5.75;4.07;;;;;;;-0.36;33.80;101312.75;4947491;29;20050;-88
2022/03/18 08:21:26;;;;;;;9.48;4.28;;;;;;;0.17;34.57;101310.75;4949110;28;20050;-90
2022/03/18 08:23:52;;;;;;;5.72;4.03;;;;;;;0.55;33.33;101294.69;4958749;29;20043;-89
2022/03/18 08:26:18;;;;;;;10.95;4.55;;;;;;;1.13;33.81;101303.81;4952450;28;20086;-83
2022/03/18 08:28:44;;;;;;;9.18;4.60;;;;;;;1.38;33.93;101307.09;4960504;28;20043;-87
2022/03/18 08:31:10;;;;;;;9.00;4.88;;;;;;;1.12;32.94;101310.84;4930814;29;20455;-80
2022/03/18 08:33:36;;;;;;;9.13;4.40;;;;;;;0.91;33.26;101308.44;4946164;29;20036;-81
2022/03/18 08:36:02;;;;;;;11.38;5.45;;;;;;;1.14;34.22;101317.00;4945409;29;20071;-85
2022/03/18 08:38:28;;;;;;;9.63;5.00;;;;;;;1.14;33.90;101303.81;4928260;29;20039;-82
2022/03/18 08:40:54;;;;;;;9.90;4.85;;;;;;;1.20;33.39;101309.03;4946112;29;20037;-80
2022/03/18 08:43:21;;;;;;;12.20;5.60;;;;;;;1.15;34.14;101313.47;4947591;29;20439;-83
2022/03/18 08:45:49;;;;;;;9.73;5.68;;;;;;;1.41;33.46;101300.03;4929184;29;20183;-85
2022/03/18 08:48:15;;;;;;;9.73;5.38;;;;;;;1.82;32.92;101310.97;4929432;29;20118;-81
2022/03/18 08:50:41;;;;;;;11.65;4.75;;;;;;;1.94;33.19;101310.81;4913474;29;20043;-81
2022/03/18 08:53:09;;;;;;;9.82;5.25;;;;;;;2.19;32.84;101292.88;4945368;29;20043;-80
2022/03/18 08:55:36;;;;;;;7.55;4.72;;;;;;;2.57;32.40;101302.00;4942072;29;20499;-78
2022/03/18 08:58:03;;;;;;;10.75;4.90;;;;;;;2.74;31.64;101307.84;4926297;29;20445;-79
2022/03/18 09:00:30;;;;;;;10.27;4.82;;;;;;;2.75;31.57;101300.84;4917155;29;20444;-78
2022/03/18 09:02:56;;;;;;;6.72;4.82;;;;;;;3.12;31.50;101301.94;4916442;29;20063;-82
2022/03/18 09:05:22;;;;;;;8.48;5.05;;;;;;;3.13;30.79;101298.38;4933300;29;20040;-81
2022/03/18 09:07:48;;;;;;;9.80;4.85;;;;;;;3.28;31.29;101313.09;4934088;29;20040;-81
2022/03/18 09:10:14;;;;;;;8.60;4.63;;;;;;;3.31;30.48;101301.56;4918630;29;20437;-82
2022/03/18 09:12:47;;;;;;;9.43;4.30;;;;;;;3.18;30.56;101306.22;4917385;29;20449;-83
2022/03/18 09:15:13;;;;;;;9.07;4.40;;;;;;;3.40;30.50;101298.78;4934360;29;20044;-86
2022/03/18 09:17:39;;;;;;;7.32;4.45;;;;;;;3.46;29.51;101297.75;4934370;29;20108;-85
2022/03/18 09:20:06;;;;;;;8.63;3.97;;;;;;;3.36;29.93;101299.75;4917896;29;20047;-83
2022/03/18 09:22:32;;;;;;;8.98;4.57;;;;;;;2.98;30.35;101298.66;4917893;29;20068;-85
2022/03/18 09:24:58;;;;;;;7.90;4.43;;;;;;;3.19;30.37;101294.75;4932040;29;20090;-83
2022/03/18 09:27:23;;;;;;;7.70;4.57;;;;;;;3.47;30.09;101292.47;4917299;29;20455;-83
2022/03/18 09:29:49;;;;;;;6.28;3.90;;;;;;;3.59;29.16;101296.63;4916350;29;20083;-83
2022/03/18 09:32:15;;;;;;;7.78;4.03;;;;;;;3.66;28.81;101292.97;4900159;29;20039;-83
2022/03/18 09:34:42;;;;;;;5.32;3.88;;;;;;;3.86;29.20;101297.84;4900807;29;20044;-83
2022/03/18 09:37:08;;;;;;;10.13;4.60;;;;;;;4.02;29.47;101290.44;4916278;29;20135;-82
2022/03/18 09:39:34;;;;;;;8.50;4.72;;;;;;;3.92;29.23;101292.44;4917303;29;20145;-83
2022/03/18 09:42:01;;;;;;;8.35;4.10;;;;;;;3.97;29.09;101287.91;4931638;29;20083;-84
2022/03/18 09:44:38;;;;;;;10.38;4.55;;;;;;;3.49;29.51;101295.94;4915825;29;20126;-83
2022/03/18 09:47:05;;;;;;;16.73;4.63;;;;;;;3.31;30.72;101286.63;4916311;29;20055;-86
2022/03/18 09:49:33;;;;;;;7.25;4.50;;;;;;;3.39;30.95;101299.69;4932144;29;20054;-85
2022/03/18 09:51:59;;;;;;;6.75;4.45;;;;;;;3.55;30.58;101297.59;4917196;29;20062;-85
2022/03/18 09:54:27;;;;;;;22.90;10.25;;;;;;;3.85;31.06;101296.09;4915844;29;20052;-84
2022/03/18 09:56:54;;;;;;;12.43;4.72;;;;;;;3.96;30.27;101296.75;4915637;29;20104;-84
2022/03/18 09:59:22;;;;;;;6.85;4.93;;;;;;;4.02;30.28;101291.31;4917171;29;20348;-87
2022/03/18 10:01:48;;;;;;;15.48;4.90;;;;;;;4.11;29.95;101296.41;4931760;29;20107;-83
2022/03/18 10:04:14;;;;;;;16.33;5.88;;;;;;;4.23;30.28;101302.34;4915925;29;20039;-85
2022/03/18 10:06:42;;;;;;;6.07;4.38;;;;;;;4.46;30.46;101307.97;4917073;29;20048;-83
2022/03/18 10:09:10;;;;;;;9.52;5.07;;;;;;;4.63;31.44;101300.50;4915649;29;20040;-83
2022/03/18 10:11:37;;;;;;;6.90;4.60;;;;;;;4.33;31.73;101303.88;4915528;29;20052;-83
2022/03/18 10:14:08;;;;;;;10.77;5.28;;;;;;;4.14;31.78;101306.06;4916739;29;20040;-83
2022/03/18 10:16:45;;;;;;;8.18;5.00;;;;;;;4.38;31.77;101305.50;4917377;29;20060;-83
2022/03/18 10:19:24;;;;;;;8.02;5.13;;;;;;;4.91;30.70;101310.41;4933180;29;20138;-86
2022/03/18 10:21:50;;;;;;;9.18;5.10;;;;;;;5.08;30.60;101296.75;4925065;29;20056;-85
2022/03/18 10:24:19;;;;;;;9.88;5.57;;;;;;;5.41;30.58;101294.94;4940069;29;20453;-83
2022/03/18 10:26:45;;;;;;;11.02;5.30;;;;;;;5.78;29.84;101300.06;4953526;29;20075;-83
2022/03/18 10:29:11;;;;;;;23.35;6.38;;;;;;;5.88;29.48;101290.06;4920170;29;20468;-86
2022/03/18 10:31:45;;;;;;;10.85;5.32;;;;;;;6.01;30.31;101302.09;4920494;29;20048;-85
2022/03/18 10:37:11;;;;;;;9.32;5.30;;;;;;;6.68;28.67;101292.94;4943623;29;20126;-85
2022/03/18 10:39:40;;;;;;;16.90;5.70;;;;;;;6.81;28.65;101295.16;4932629;29;20449;-83
2022/03/18 10:42:10;;;;;;;10.10;5.43;;;;;;;6.95;28.02;101302.63;4931691;29;20087;-82
2022/03/18 10:44:49;;;;;;;8.48;5.18;;;;;;;6.83;28.50;101292.41;4915762;29;20096;-83
2022/03/18 10:47:28;;;;;;;;;;;;;;;7.15;28.64;101295.78;4917020;29;20067;-83
2022/03/18 10:50:11;;;;;;;8.87;5.20;;;;;;;7.24;28.04;101284.81;4947912;29;20330;-81
2022/03/18 10:53:03;;;;;;;6.68;4.88;;;;;;;7.31;28.44;101294.31;4947726;29;20055;-84
2022/03/18 10:55:36;;;;;;;11.93;5.53;;;;;;;6.86;28.37;101292.31;4947701;29;20044;-82
2022/03/18 10:58:10;;;;;;;7.57;4.65;;;;;;;6.12;28.74;101290.28;4931036;29;20044;-83
2022/03/18 11:00:50;;;;;;;8.13;4.88;;;;;;;5.99;29.11;101293.31;4915670;29;20088;-83
2022/03/18 11:03:17;;;;;;;8.20;4.78;;;;;;;5.71;29.61;101292.34;4946999;29;20059;-81
2022/03/18 11:05:45;;;;;;;9.05;5.10;;;;;;;5.67;29.24;101288.91;4946725;29;20111;-84
2022/03/18 11:08:14;;;;;;;11.50;5.28;;;;;;;5.81;29.57;101293.81;4916324;29;20056;-83
2022/03/18 11:13:29;;;;;;;8.65;4.97;;;;;;;5.60;30.19;101296.19;4930738;29;20139;-84
2022/03/18 11:15:56;;;;;;;7.43;4.63;;;;;;;5.57;30.23;101293.63;4919692;29;20453;-85
2022/03/18 11:18:25;;;;;;;9.13;4.90;;;;;;;5.47;30.39;101297.44;4934267;29;20043;-84
2022/03/18 11:20:53;;;;;;;10.88;5.65;;;;;;;6.18;30.82;101298.94;4950023;29;20048;-85
2022/03/18 11:23:22;;;;;;;16.52;5.30;;;;;;;6.42;29.34;101297.28;4950062;28;20060;-85
2022/03/18 11:26:07;;;;;;;12.35;5.70;;;;;;;6.98;28.80;101293.69;4934231;29;20044;-84
2022/03/18 11:28:33;;;;;;;9.68;5.10;;;;;;;7.69;28.60;101302.72;4919740;29;20052;-86
2022/03/18 11:31:07;;;;;;;13.45;5.78;;;;;;;8.15;27.61;101298.31;4950768;29;20047;-83
2022/03/18 11:33:37;;;;;;;15.38;5.75;;;;;;;8.46;27.64;101298.88;4919880;29;20052;-86
2022/03/18 11:36:08;;;;;;;5.80;4.45;;;;;;;8.50;27.02;101294.31;4950535;29;20040;-86
2022/03/18 11:38:51;;;;;;;9.60;5.10;;;;;;;8.87;26.44;101288.31;4934995;29;20052;-84
2022/03/18 11:41:19;;;;;;;30.13;5.25;;;;;;;9.00;26.30;101294.00;4920385;29;20417;-87
2022/03/18 11:43:45;;;;;;;22.33;5.00;;;;;;;9.27;25.59;101291.94;4935909;29;20108;-87